Startpagina
METAR-TAF:

METAR-TAF

Vliegvelden :

Vliegbasis Woensdrecht

Woensdrecht, Nederland

breedte: 51-27N, lengte: 004-20E, hoogte: 20 m

Actueel weer

Dit bericht is 21 minuten geleden gemaakt, om 19:55 UTC
Wind 7 kt uit het noordnoordwesten, variërend tussen het westen en het noordnoordoosten
Temperatuur 15°C
Vochtigheid 82%
Druk 1003 hPa
Zicht 10 km of meer
Geheel bewolkt op 26000 ft

METAR: EHWO 031955Z AUTO 33007KT 270V020 9999 OVC260 15/12 Q1003 BLU

Tijdstip: 22:16 (20:16 UTC)

Verwachting

Dit bericht is 11 uur en het 55 minuten geleden gemaakt, om 08:21 UTC
Verwachting geldig van 03 om 09 UTC tot 03 om 21 UTC
Wind 7 kt uit het westen
Zicht 10 km of meer
geen wolken onder 1500 m en geen cumulonimbus
Tijdelijke
van 03 om 13 UTC tot 03 om 17 UTC
Wind 10 kt uit het westnoordwesten met uitschieters tot 20 kt
Wijzigt naar
van 03 om 15 UTC tot 03 om 18 UTC
Wind 8 kt uit het noordnoordwesten

TAF: EHWO 030821Z 0309/0321 28007KT CAVOK TEMPO 0313/0317 29010G20KT BECMG 0315/0318 34008KT

Waarnemingen en weersverwachtingen van meer dan 4000 vliegvelden (METAR en TAF).

De beschikbare stations zijn de gele en rode punten op de kaart.

Ga met uw muis naar het station om de naam te zien.

Klik dan om waarnemingen en weersverwachtingen te zien.

kaart wijzigen: klik op de groene knoppen met een zwart kruis om in te zoomen, op de groene knop met een streepje om uit te zoomen of op de groene pijlen voor aangrenzende kaarten.


METAR-TAF: